createdAt,value
2019-05-05T00:05:47.088Z,100102.81
2019-05-05T00:08:17.026Z,100104.27
2019-05-05T00:11:57.863Z,100104.77
2019-05-05T00:59:22.598Z,100138.94
2019-05-05T01:02:39.041Z,100148.70
2019-05-05T01:05:31.650Z,100151.70
2019-05-05T01:08:14.307Z,100147.47
2019-05-05T01:10:46.610Z,100152.81
2019-05-05T01:13:32.471Z,100152.48
2019-05-05T01:16:04.827Z,100153.53
2019-05-05T01:18:35.138Z,100157.94
2019-05-05T01:21:04.861Z,100159.37
2019-05-05T01:24:31.448Z,100162.98
2019-05-05T01:27:08.758Z,100166.37
2019-05-05T01:29:54.571Z,100157.39
2019-05-05T01:33:12.105Z,100160.28
2019-05-05T01:36:08.572Z,100158.50
2019-05-05T01:38:58.119Z,100157.05
2019-05-05T01:41:46.576Z,100154.46
2019-05-05T01:44:15.802Z,100157.34
2019-05-05T01:46:45.039Z,100156.73
2019-05-05T01:49:14.704Z,100161.75
2019-05-05T01:51:44.764Z,100161.03
2019-05-05T01:54:14.611Z,100160.64
2019-05-05T01:56:44.654Z,100170.40
2019-05-05T01:59:14.487Z,100174.30
2019-05-05T02:01:44.563Z,100166.98
2019-05-05T02:04:14.550Z,100176.91
2019-05-05T02:06:44.414Z,100177.53
2019-05-05T02:09:15.925Z,100172.48
2019-05-05T02:11:45.370Z,100171.64
2019-05-05T02:14:15.556Z,100167.22
2019-05-05T02:16:45.355Z,100171.85
2019-05-05T02:19:14.550Z,100170.52
2019-05-05T02:21:45.339Z,100165.26
2019-05-05T02:24:14.640Z,100167.31
2019-05-05T02:26:45.553Z,100169.66
2019-05-05T02:29:27.762Z,100168.94
2019-05-05T02:32:15.825Z,100172.66
2019-05-05T02:34:50.744Z,100176.23
2019-05-05T02:37:19.989Z,100177.15
2019-05-05T02:39:57.937Z,100181.88
2019-05-05T02:42:25.037Z,100180.03
2019-05-05T02:44:56.593Z,100178.75
2019-05-05T02:47:51.207Z,100177.00
2019-05-05T02:50:20.956Z,100173.28
2019-05-05T02:52:50.806Z,100185.02
2019-05-05T02:55:23.426Z,100179.34
2019-05-05T02:57:54.403Z,100188.08
2019-05-05T03:00:43.657Z,100189.00
2019-05-05T03:03:13.470Z,100191.47
2019-05-05T03:05:43.465Z,100192.09
2019-05-05T03:08:13.873Z,100191.47
2019-05-05T03:10:44.294Z,100198.95
2019-05-05T03:13:14.635Z,100199.09
2019-05-05T03:15:55.150Z,100193.28
2019-05-05T03:18:25.041Z,100199.87
2019-05-05T03:21:03.735Z,100198.78
2019-05-05T03:23:25.430Z,100194.23
2019-05-05T03:25:54.978Z,100194.16
2019-05-05T03:28:26.661Z,100196.14
2019-05-05T03:30:56.415Z,100201.38
2019-05-05T03:33:25.790Z,100198.12
2019-05-05T03:35:55.123Z,100202.25
2019-05-05T03:38:24.857Z,100209.31
2019-05-05T03:40:55.685Z,100207.72
2019-05-05T03:43:29.755Z,100212.02
2019-05-05T03:46:01.775Z,100213.97
2019-05-05T03:48:31.156Z,100208.06
2019-05-05T03:51:00.468Z,100220.34
2019-05-05T03:53:30.309Z,100217.34
2019-05-05T03:56:00.270Z,100225.08
2019-05-05T03:58:29.832Z,100222.66
2019-05-05T04:01:31.046Z,100226.11
2019-05-05T04:04:18.044Z,100231.28
2019-05-05T04:06:48.778Z,100231.64
2019-05-05T04:09:18.052Z,100232.50
2019-05-05T04:11:47.672Z,100237.67
2019-05-05T04:14:18.513Z,100230.27
2019-05-05T04:16:54.429Z,100231.91
2019-05-05T04:19:25.152Z,100238.48
2019-05-05T04:21:54.391Z,100229.64
2019-05-05T04:24:23.913Z,100235.70
2019-05-05T04:26:54.573Z,100243.64
2019-05-05T04:29:24.384Z,100240.88
2019-05-05T04:31:54.091Z,100240.83
2019-05-05T04:34:24.180Z,100244.55
2019-05-05T04:36:54.665Z,100245.88
2019-05-05T04:39:23.972Z,100246.51
2019-05-05T04:41:54.571Z,100251.27
2019-05-05T04:44:23.911Z,100245.70
2019-05-05T04:46:56.452Z,100252.12
2019-05-05T04:49:47.735Z,100260.90
2019-05-05T04:52:17.768Z,100261.95
2019-05-05T04:54:51.706Z,100259.96
2019-05-05T04:57:20.963Z,100267.09
2019-05-05T04:59:54.002Z,100258.95
2019-05-05T05:02:40.170Z,100252.17
2019-05-05T05:05:16.343Z,100257.59
2019-05-05T05:07:45.598Z,100260.20
2019-05-05T05:10:14.829Z,100264.53
2019-05-05T05:12:44.086Z,100267.66
2019-05-05T05:15:14.647Z,100268.58
2019-05-05T05:17:50.571Z,100264.88
2019-05-05T05:20:19.839Z,100265.72
2019-05-05T05:22:49.464Z,100270.87
2019-05-05T05:25:18.681Z,100275.33
2019-05-05T05:27:47.927Z,100279.03
2019-05-05T05:30:18.512Z,100286.16
2019-05-05T05:32:53.744Z,100286.89
2019-05-05T05:49:24.318Z,100289.83
2019-05-05T05:51:54.874Z,100296.19
2019-05-05T05:54:26.044Z,100296.83
2019-05-05T06:00:23.860Z,100320.52
2019-05-05T06:02:56.275Z,100309.06
2019-05-05T06:05:25.715Z,100315.77
2019-05-05T06:07:56.178Z,100319.09
2019-05-05T06:10:27.449Z,100321.78
2019-05-05T06:12:56.683Z,100332.10
2019-05-05T06:15:26.008Z,100322.92
2019-05-05T06:17:55.733Z,100329.03
2019-05-05T06:20:25.167Z,100326.52
2019-05-05T06:22:54.628Z,100329.59
2019-05-05T06:25:26.628Z,100322.68
2019-05-05T06:27:57.847Z,100327.94
2019-05-05T06:30:27.231Z,100324.63
2019-05-05T06:32:56.678Z,100318.80
2019-05-05T06:35:26.204Z,100316.72
2019-05-05T06:37:56.386Z,100312.16
2019-05-05T06:40:35.821Z,100315.77
2019-05-05T06:43:19.113Z,100313.44
2019-05-05T06:45:53.544Z,100320.60
2019-05-05T06:48:23.851Z,100326.42
2019-05-05T06:50:54.455Z,100326.66
2019-05-05T06:53:23.980Z,100332.37
2019-05-05T06:55:54.302Z,100337.67
2019-05-05T06:58:24.539Z,100335.41
2019-05-05T07:00:54.344Z,100333.61
2019-05-05T07:03:24.860Z,100331.02
2019-05-05T07:05:56.332Z,100331.10
2019-05-05T07:08:27.036Z,100338.22
2019-05-05T07:10:56.979Z,100336.78
2019-05-05T07:13:28.398Z,100333.95
2019-05-05T07:15:57.836Z,100345.04
2019-05-05T07:18:27.184Z,100348.25
2019-05-05T07:20:57.291Z,100350.52
2019-05-05T07:23:27.726Z,100349.95
2019-05-05T07:25:57.053Z,100365.58
2019-05-05T07:28:27.095Z,100358.06
2019-05-05T07:30:57.107Z,100360.70
2019-05-05T07:33:26.457Z,100365.26
2019-05-05T07:36:14.786Z,100355.89
2019-05-05T07:38:45.497Z,100357.23
2019-05-05T07:41:14.897Z,100363.34
2019-05-05T07:43:44.687Z,100362.38
2019-05-05T07:46:14.468Z,100351.91
2019-05-05T07:48:46.137Z,100353.12
2019-05-05T07:51:17.500Z,100357.21
2019-05-05T07:53:46.819Z,100359.41
2019-05-05T07:56:16.231Z,100356.45
2019-05-05T07:58:45.650Z,100360.31
2019-05-05T08:01:15.056Z,100358.04
2019-05-05T08:03:44.751Z,100365.95
2019-05-05T10:09:57.773Z,100396.94
2019-05-05T10:15:01.163Z,100407.03
2019-05-05T10:29:25.000Z,100405.83
2019-05-05T10:50:44.548Z,100437.94
2019-05-05T10:53:14.641Z,100444.37
2019-05-05T10:55:45.023Z,100442.00
2019-05-05T11:34:44.189Z,100439.83
2019-05-05T11:37:20.543Z,100454.63
2019-05-05T11:39:50.510Z,100461.02
2019-05-05T11:42:21.264Z,100457.97
2019-05-05T11:44:52.234Z,100440.99
2019-05-05T11:47:24.559Z,100443.87
2019-05-05T11:49:57.019Z,100445.72
2019-05-05T11:56:07.410Z,100431.00
2019-05-05T11:58:36.869Z,100415.02
2019-05-05T12:01:07.130Z,100409.62
2019-05-05T12:03:44.376Z,100417.86
2019-05-05T12:06:15.541Z,100422.14
2019-05-05T12:08:46.013Z,100424.77
2019-05-05T12:11:15.609Z,100435.95
2019-05-05T12:13:45.151Z,100435.16
2019-05-05T12:16:31.347Z,100443.94
2019-05-05T12:19:02.653Z,100451.73
2019-05-05T12:21:33.764Z,100452.60
2019-05-05T12:24:07.785Z,100454.13
2019-05-05T12:26:55.173Z,100452.62
2019-05-05T12:29:37.819Z,100462.36
2019-05-05T12:32:14.828Z,100472.11
2019-05-05T12:34:44.624Z,100476.23
2019-05-05T12:37:14.392Z,100487.86
2019-05-05T12:39:44.300Z,100498.34
2019-05-05T12:42:14.154Z,100487.83
2019-05-05T12:44:50.265Z,100494.65
2019-05-05T12:47:30.944Z,100473.14
2019-05-05T13:06:28.103Z,100471.59
2019-05-05T13:08:57.537Z,100484.36
2019-05-05T14:13:25.178Z,100417.36
2019-05-05T16:57:14.431Z,100458.30
2019-05-05T16:59:44.249Z,100453.44
2019-05-05T17:02:13.992Z,100455.50
2019-05-05T17:04:53.790Z,100447.53
2019-05-05T17:07:23.770Z,100446.77
2019-05-05T17:09:53.535Z,100458.95
2019-05-05T17:12:24.338Z,100448.44
2019-05-05T17:15:12.532Z,100451.06
2019-05-05T17:18:32.582Z,100442.44
2019-05-05T17:20:59.276Z,100437.55
2019-05-05T17:23:29.414Z,100430.88
2019-05-05T17:26:05.697Z,100430.52
2019-05-05T17:28:35.206Z,100417.61
2019-05-05T17:31:07.951Z,100414.97
2019-05-05T17:36:08.318Z,100418.54
2019-05-05T17:38:38.052Z,100414.90
2019-05-05T17:41:34.039Z,100412.41
2019-05-05T17:44:15.378Z,100413.58
2019-05-05T17:50:23.830Z,100409.13
2019-05-05T17:53:06.737Z,100412.30
2019-05-05T17:55:40.475Z,100408.44
2019-05-05T17:58:09.927Z,100405.36
2019-05-05T18:00:58.508Z,100410.95
2019-05-05T18:03:27.821Z,100416.17
2019-05-05T18:06:16.530Z,100417.67
2019-05-05T18:08:56.135Z,100412.27
2019-05-05T18:11:35.168Z,100415.87
2019-05-05T18:14:10.207Z,100416.06
2019-05-05T18:16:44.964Z,100427.59
2019-05-05T18:19:14.239Z,100428.23
2019-05-05T18:21:46.096Z,100418.84
2019-05-05T18:24:16.931Z,100424.29
2019-05-05T18:26:47.506Z,100423.37
2019-05-05T18:29:18.047Z,100421.64
2019-05-05T18:31:47.746Z,100430.05
2019-05-05T18:34:18.127Z,100431.25
2019-05-05T18:36:47.908Z,100434.78
2019-05-05T18:39:17.574Z,100426.02
2019-05-05T18:42:05.581Z,100436.66
2019-05-05T18:44:41.131Z,100433.36
2019-05-05T18:47:18.365Z,100434.35
2019-05-05T18:49:48.527Z,100436.38
2019-05-05T18:52:17.976Z,100438.08
2019-05-05T18:54:47.938Z,100438.60
2019-05-05T18:57:17.702Z,100427.29
2019-05-05T18:59:47.564Z,100435.45
2019-05-05T19:02:29.852Z,100434.50
2019-05-05T19:05:23.710Z,100431.32
2019-05-05T19:08:01.574Z,100437.47
2019-05-05T19:10:33.671Z,100438.22
2019-05-05T19:13:02.963Z,100444.67
2019-05-05T19:15:32.420Z,100447.28
2019-05-05T19:21:22.289Z,100445.69
2019-05-05T19:23:54.457Z,100451.46
2019-05-05T19:26:24.162Z,100451.38
2019-05-05T19:28:54.755Z,100454.22
2019-05-05T19:31:24.687Z,100456.37
2019-05-05T19:33:55.912Z,100454.33
2019-05-05T19:36:27.529Z,100449.69
2019-05-05T19:38:57.837Z,100450.00
2019-05-05T19:42:14.447Z,100450.44
2019-05-05T19:44:44.621Z,100452.53
2019-05-05T19:47:19.803Z,100462.13
2019-05-05T19:49:57.334Z,100460.93
2019-05-05T19:52:27.453Z,100457.92
2019-05-05T19:55:54.608Z,100463.82
2019-05-05T19:58:24.273Z,100458.49
2019-05-05T20:00:55.978Z,100465.59
2019-05-05T20:06:54.899Z,100466.96
2019-05-05T20:10:00.519Z,100468.87
2019-05-05T20:12:29.769Z,100468.73
2019-05-05T20:15:00.028Z,100473.23
2019-05-05T20:17:33.727Z,100477.50
2019-05-05T20:20:04.479Z,100473.06
2019-05-05T20:22:39.850Z,100479.64
2019-05-05T20:25:10.236Z,100476.12
2019-05-05T20:27:42.979Z,100472.45
2019-05-05T20:30:15.738Z,100479.45
2019-05-05T20:32:56.991Z,100481.50
2019-05-05T20:35:39.101Z,100478.58
2019-05-05T20:38:35.262Z,100482.94
2019-05-05T20:41:14.257Z,100484.80
2019-05-05T20:43:48.194Z,100486.84
2019-05-05T20:46:23.541Z,100483.54
2019-05-05T20:49:15.310Z,100484.52
2019-05-05T20:51:49.147Z,100485.48
2019-05-05T20:54:20.757Z,100484.89
2019-05-05T20:56:56.636Z,100485.11
2019-05-05T20:59:31.040Z,100483.22
2019-05-05T21:02:04.229Z,100486.89
2019-05-05T21:04:35.283Z,100483.16
2019-05-05T21:07:10.884Z,100484.56
2019-05-05T21:09:45.036Z,100489.44
2019-05-05T21:12:20.190Z,100485.86
2019-05-05T21:14:53.733Z,100483.22
2019-05-05T21:17:28.257Z,100483.02
2019-05-05T21:20:01.291Z,100486.23
2019-05-05T21:22:44.985Z,100486.84
2019-05-05T21:25:24.743Z,100487.34
2019-05-05T21:27:57.234Z,100488.50
2019-05-05T21:30:30.524Z,100489.76
2019-05-05T21:33:04.402Z,100485.58
2019-05-05T21:35:37.138Z,100492.08
2019-05-05T21:38:09.372Z,100497.56
2019-05-05T21:40:44.031Z,100497.97
2019-05-05T21:43:15.537Z,100498.52
2019-05-05T21:45:46.917Z,100498.52
2019-05-05T21:48:18.808Z,100500.61
2019-05-05T21:51:14.142Z,100501.61
2019-05-05T21:54:04.442Z,100507.26
2019-05-05T21:57:04.398Z,100506.25
2019-05-05T21:59:55.239Z,100502.47
2019-05-05T22:02:15.663Z,100506.66
2019-05-05T22:04:50.222Z,100502.58
2019-05-05T22:07:24.119Z,100509.51
2019-05-05T22:09:57.894Z,100504.91
2019-05-05T22:12:29.437Z,100507.00
2019-05-05T22:15:04.893Z,100509.73
2019-05-05T22:17:36.387Z,100502.08
2019-05-05T22:20:16.308Z,100503.14
2019-05-05T22:22:48.626Z,100503.56
2019-05-05T22:25:21.339Z,100496.92
2019-05-05T22:27:54.525Z,100504.78
2019-05-05T22:30:27.397Z,100504.17
2019-05-05T22:32:58.733Z,100509.56
2019-05-05T22:35:30.961Z,100503.92
2019-05-05T22:38:05.832Z,100505.69
2019-05-05T22:40:34.893Z,100506.38
2019-05-05T22:43:06.782Z,100502.77
2019-05-05T22:45:38.932Z,100506.23
2019-05-05T22:48:14.387Z,100510.39
2019-05-05T22:50:45.644Z,100508.34
2019-05-05T22:53:16.301Z,100510.84
2019-05-05T22:55:49.079Z,100503.83
2019-05-05T22:58:25.033Z,100506.93
2019-05-05T23:00:57.734Z,100505.81
2019-05-05T23:03:55.334Z,100505.20
2019-05-05T23:06:29.240Z,100507.78
2019-05-05T23:09:04.122Z,100506.13
2019-05-05T23:11:37.341Z,100506.05
2019-05-05T23:14:24.810Z,100503.23
2019-05-05T23:17:04.529Z,100506.05
2019-05-05T23:19:40.919Z,100508.13
2019-05-05T23:22:28.736Z,100507.52
2019-05-05T23:25:04.568Z,100514.37
2019-05-05T23:27:49.638Z,100509.91
2019-05-05T23:30:23.683Z,100505.16
2019-05-05T23:32:56.273Z,100506.53
2019-05-05T23:35:28.692Z,100500.25
2019-05-05T23:38:03.524Z,100502.22
2019-05-05T23:40:35.673Z,100508.63
2019-05-05T23:43:08.183Z,100504.89
2019-05-05T23:45:39.236Z,100511.11
2019-05-05T23:48:14.419Z,100509.97
2019-05-05T23:50:46.015Z,100514.83
2019-05-05T23:53:18.425Z,100514.73
2019-05-05T23:55:54.588Z,100517.11
2019-05-05T23:58:26.576Z,100513.61
